createdAt,value
2018-10-01T00:00:27.094Z,29.50
2018-10-01T00:01:58.569Z,27.40
2018-10-01T00:03:30.270Z,28.00
2018-10-01T00:05:01.716Z,30.60
2018-10-01T00:06:33.501Z,31.00
2018-10-01T00:08:05.064Z,32.00
2018-10-01T00:09:36.437Z,30.10
2018-10-01T00:11:08.075Z,31.00
2018-10-01T00:12:39.582Z,30.10
2018-10-01T00:14:11.154Z,32.10
2018-10-01T00:15:42.729Z,32.70
2018-10-01T00:17:14.300Z,34.50
2018-10-01T00:18:45.875Z,33.80
2018-10-01T00:20:17.447Z,35.10
2018-10-01T00:21:49.020Z,36.90
2018-10-01T00:23:20.593Z,36.80
2018-10-01T00:24:52.267Z,38.30
2018-10-01T00:26:23.741Z,40.90
2018-10-01T00:27:55.313Z,41.70
2018-10-01T00:29:26.886Z,42.70
2018-10-01T00:30:58.559Z,41.80
2018-10-01T00:32:30.033Z,46.70
2018-10-01T00:34:01.605Z,50.40
2018-10-01T00:35:33.179Z,55.80
2018-10-01T00:37:04.751Z,55.40
2018-10-01T00:38:36.328Z,55.70
2018-10-01T00:40:07.899Z,57.00
2018-10-01T00:41:39.481Z,58.10
2018-10-01T00:43:11.144Z,59.60
2018-10-01T00:44:42.617Z,57.30
2018-10-01T00:46:14.232Z,58.30
2018-10-01T00:47:46.289Z,53.70
2018-10-01T00:49:17.436Z,58.20
2018-10-01T00:50:48.909Z,59.50
2018-10-01T00:52:20.482Z,59.10
2018-10-01T00:53:52.057Z,58.90
2018-10-01T00:55:23.629Z,59.60
2018-10-01T00:56:55.925Z,54.30
2018-10-01T00:58:26.773Z,58.00
2018-10-01T00:59:58.346Z,58.20
2018-10-01T01:01:30.121Z,50.70
2018-10-01T01:03:01.492Z,54.40
2018-10-01T01:04:33.066Z,54.40
2018-10-01T01:06:04.638Z,47.20
2018-10-01T01:07:36.217Z,45.70
2018-10-01T01:09:07.784Z,46.70
2018-10-01T01:10:39.357Z,46.80
2018-10-01T01:12:10.930Z,47.20
2018-10-01T01:13:42.502Z,44.10
2018-10-01T01:15:14.076Z,45.10
2018-10-01T01:16:45.649Z,45.50
2018-10-01T01:18:17.224Z,44.50
2018-10-01T01:19:48.895Z,44.80
2018-10-01T01:21:20.376Z,43.60
2018-10-01T01:22:51.946Z,44.00
2018-10-01T01:24:23.514Z,46.90
2018-10-01T01:25:55.090Z,45.10
2018-10-01T01:27:26.660Z,45.80
2018-10-01T01:28:58.234Z,45.30
2018-10-01T01:30:29.805Z,45.20
2018-10-01T01:32:01.380Z,43.70
2018-10-01T01:33:32.951Z,44.60
2018-10-01T01:35:04.524Z,42.10
2018-10-01T01:36:36.096Z,38.40
2018-10-01T01:38:07.770Z,39.40
2018-10-01T01:39:39.244Z,40.20
2018-10-01T01:41:10.816Z,42.20
2018-10-01T01:42:42.389Z,41.60
2018-10-01T01:44:13.964Z,42.10
2018-10-01T01:45:45.536Z,39.70
2018-10-01T01:47:17.108Z,41.50
2018-10-01T01:48:48.680Z,42.10
2018-10-01T01:50:20.354Z,40.80
2018-10-01T01:51:51.831Z,43.30
2018-10-01T01:53:23.399Z,40.70
2018-10-01T01:56:26.645Z,40.30
2018-10-01T01:57:58.221Z,37.80
2018-10-01T01:59:29.693Z,38.00
2018-10-01T02:01:01.459Z,37.30
2018-10-01T02:02:32.838Z,33.60
2018-10-01T02:04:04.412Z,33.90
2018-10-01T02:05:35.986Z,32.20
2018-10-01T02:07:07.558Z,30.70
2018-10-01T02:08:39.130Z,26.30
2018-10-01T02:10:10.704Z,21.90
2018-10-01T02:13:13.851Z,23.70
2018-10-01T02:14:45.525Z,24.10
2018-10-01T02:16:16.995Z,20.90
2018-10-01T02:17:48.569Z,20.70
2018-10-01T02:19:20.142Z,20.30
2018-10-01T02:20:52.447Z,18.50
2018-10-01T02:22:23.287Z,18.60
2018-10-01T02:23:54.863Z,17.90
2018-10-01T02:25:26.434Z,19.20
2018-10-01T02:26:58.008Z,18.00
2018-10-01T02:28:29.580Z,18.50
2018-10-01T02:30:01.153Z,19.30
2018-10-01T02:31:32.725Z,17.30
2018-10-01T02:33:04.398Z,17.40
2018-10-01T02:34:35.870Z,17.40
2018-10-01T02:36:07.444Z,16.80
2018-10-01T02:37:39.018Z,18.60
2018-10-01T02:39:10.589Z,17.50
2018-10-01T02:40:42.163Z,17.70
2018-10-01T02:42:13.736Z,17.50
2018-10-01T02:43:45.313Z,18.00
2018-10-01T02:45:16.884Z,16.90
2018-10-01T02:46:48.455Z,17.40
2018-10-01T02:48:20.040Z,17.10
2018-10-01T02:49:51.602Z,16.40
2018-10-01T02:51:23.275Z,17.20
2018-10-01T02:54:26.321Z,20.00
2018-10-01T02:55:57.895Z,20.10
2018-10-01T02:57:29.570Z,20.10
2018-10-01T02:59:01.040Z,19.30
2018-10-01T03:00:32.613Z,20.90
2018-10-01T03:02:04.189Z,20.60
2018-10-01T03:03:36.063Z,21.80
2018-10-01T03:05:07.335Z,21.70
2018-10-01T03:06:38.909Z,22.00
2018-10-01T03:08:10.482Z,22.90
2018-10-01T03:09:42.155Z,25.40
2018-10-01T03:11:13.643Z,24.60
2018-10-01T03:12:45.206Z,25.20
2018-10-01T03:14:16.776Z,26.80
2018-10-01T03:15:48.350Z,26.40
2018-10-01T03:17:19.923Z,27.50
2018-10-01T03:18:51.699Z,26.20
2018-10-01T03:20:23.074Z,27.80
2018-10-01T03:21:54.744Z,28.20
2018-10-01T03:23:26.222Z,29.10
2018-10-01T03:24:57.792Z,27.50
2018-10-01T03:26:29.369Z,27.80
2018-10-01T03:28:01.038Z,28.50
2018-10-01T03:29:32.513Z,28.20
2018-10-01T03:31:04.084Z,28.60
2018-10-01T03:32:35.657Z,28.50
2018-10-01T03:34:07.332Z,27.40
2018-10-01T03:35:38.805Z,27.20
2018-10-01T03:37:10.383Z,28.50
2018-10-01T03:38:41.952Z,28.80
2018-10-01T03:40:13.710Z,27.80
2018-10-01T03:41:45.099Z,28.30
2018-10-01T03:43:16.671Z,27.90
2018-10-01T03:44:48.248Z,28.00
2018-10-01T03:46:19.919Z,28.20
2018-10-01T03:47:51.391Z,28.20
2018-10-01T03:49:22.965Z,26.50
2018-10-01T03:50:54.842Z,28.30
2018-10-01T03:52:26.113Z,26.80
2018-10-01T03:53:57.685Z,26.10
2018-10-01T03:55:29.264Z,26.00
2018-10-01T03:57:00.833Z,28.70
2018-10-01T03:58:32.405Z,32.00
2018-10-01T04:00:03.979Z,29.20
2018-10-01T04:01:35.553Z,28.90
2018-10-01T04:03:07.163Z,31.40
2018-10-01T04:04:38.901Z,28.90
2018-10-01T04:06:10.273Z,28.60
2018-10-01T04:07:41.846Z,29.80
2018-10-01T04:09:13.421Z,30.00
2018-10-01T04:10:44.994Z,28.80
2018-10-01T04:12:16.568Z,27.40
2018-10-01T04:13:48.140Z,28.30
2018-10-01T04:15:19.713Z,27.70
2018-10-01T04:16:51.289Z,27.20
2018-10-01T04:18:22.863Z,29.30
2018-10-01T04:19:54.435Z,26.60
2018-10-01T04:21:26.007Z,23.30
2018-10-01T04:22:57.883Z,23.30
2018-10-01T04:24:29.158Z,24.60
2018-10-01T04:26:00.729Z,26.50
2018-10-01T04:27:32.300Z,27.40
2018-10-01T04:29:03.877Z,30.00
2018-10-01T04:30:35.455Z,28.80
2018-10-01T04:32:07.023Z,29.30
2018-10-01T04:33:38.595Z,28.30
2018-10-01T04:35:10.169Z,27.90
2018-10-01T04:36:41.741Z,27.10
2018-10-01T04:38:13.316Z,26.00
2018-10-01T04:41:16.562Z,31.40
2018-10-01T04:42:48.038Z,31.30
2018-10-01T04:44:19.610Z,26.90
2018-10-01T04:45:51.183Z,28.60
2018-10-01T04:47:22.757Z,28.20
2018-10-01T04:48:54.634Z,27.00
2018-10-01T04:50:25.905Z,26.70
2018-10-01T04:51:57.478Z,28.60
2018-10-01T04:53:29.152Z,28.70
2018-10-01T04:55:00.625Z,27.20
2018-10-01T04:56:32.199Z,28.30
2018-10-01T04:58:03.858Z,28.40
2018-10-01T04:59:35.446Z,27.00
2018-10-01T05:01:06.920Z,27.30
2018-10-01T05:02:38.494Z,27.90
2018-10-01T05:04:10.067Z,28.80
2018-10-01T05:05:41.741Z,29.00
2018-10-01T05:07:13.821Z,29.80
2018-10-01T05:08:44.789Z,29.90
2018-10-01T05:10:16.361Z,32.50
2018-10-01T05:11:48.239Z,29.20
2018-10-01T05:13:19.508Z,27.80
2018-10-01T05:14:51.487Z,25.60
2018-10-01T05:16:22.656Z,27.70
2018-10-01T05:17:54.334Z,27.10
2018-10-01T05:19:25.803Z,27.50
2018-10-01T05:20:57.578Z,25.00
2018-10-01T05:22:28.954Z,25.60
2018-10-01T05:24:00.522Z,21.90
2018-10-01T05:25:32.096Z,21.30
2018-10-01T05:27:03.732Z,24.50
2018-10-01T05:28:35.244Z,25.30
2018-10-01T05:30:06.818Z,31.30
2018-10-01T05:31:38.392Z,32.40
2018-10-01T05:33:09.964Z,33.80
2018-10-01T05:34:41.538Z,31.50
2018-10-01T05:36:13.312Z,29.30
2018-10-01T05:37:44.692Z,24.40
2018-10-01T05:39:16.260Z,26.70
2018-10-01T05:40:47.832Z,28.30
2018-10-01T05:42:19.406Z,31.90
2018-10-01T05:43:50.980Z,34.70
2018-10-01T05:45:22.557Z,32.70
2018-10-01T05:46:54.126Z,29.70
2018-10-01T05:48:25.700Z,31.40
2018-10-01T05:49:57.273Z,31.20
2018-10-01T05:51:28.849Z,31.30
2018-10-01T05:53:00.421Z,32.90
2018-10-01T05:54:32.096Z,29.60
2018-10-01T05:56:03.568Z,31.30
2018-10-01T05:57:35.158Z,27.40
2018-10-01T05:59:06.715Z,29.00
2018-10-01T06:00:38.290Z,26.50
2018-10-01T06:02:09.863Z,26.30
2018-10-01T06:03:41.437Z,25.50
2018-10-01T06:05:13.011Z,26.70
2018-10-01T06:06:44.684Z,24.70
2018-10-01T06:08:16.159Z,28.40
2018-10-01T06:09:47.732Z,27.50
2018-10-01T06:11:19.305Z,27.10
2018-10-01T06:12:51.282Z,28.20
2018-10-01T06:14:22.452Z,28.40
2018-10-01T06:15:54.026Z,28.20
2018-10-01T06:17:25.600Z,28.80
2018-10-01T06:18:57.174Z,28.70
2018-10-01T06:20:28.747Z,30.80
2018-10-01T06:22:00.320Z,28.60
2018-10-01T06:23:31.894Z,29.30
2018-10-01T06:25:03.629Z,27.30
2018-10-01T06:26:35.042Z,28.50
2018-10-01T06:28:06.615Z,30.60
2018-10-01T06:29:38.189Z,26.80
2018-10-01T06:31:09.864Z,27.60
2018-10-01T06:32:41.336Z,26.30
2018-10-01T06:34:12.910Z,25.80
2018-10-01T06:35:45.006Z,25.50
2018-10-01T06:37:16.057Z,25.70
2018-10-01T06:38:47.632Z,24.40
2018-10-01T06:40:19.204Z,24.50
2018-10-01T06:41:50.863Z,26.40
2018-10-01T06:43:22.456Z,25.40
2018-10-01T06:44:53.926Z,27.90
2018-10-01T06:46:25.498Z,29.00
2018-10-01T06:47:57.072Z,30.10
2018-10-01T06:49:29.046Z,26.20
2018-10-01T06:51:00.325Z,26.00
2018-10-01T06:52:31.794Z,28.00
2018-10-01T06:54:03.367Z,27.40
2018-10-01T06:55:35.040Z,28.20
2018-10-01T06:57:06.513Z,29.50
2018-10-01T06:58:38.088Z,27.10
2018-10-01T07:00:09.663Z,28.90
2018-10-01T07:01:41.234Z,28.60
2018-10-01T07:03:13.112Z,29.40
2018-10-01T07:04:44.382Z,28.00
2018-10-01T07:06:15.956Z,26.40
2018-10-01T07:07:47.932Z,30.00
2018-10-01T07:09:19.103Z,30.50
2018-10-01T07:10:50.677Z,30.70
2018-10-01T07:12:22.250Z,30.60
2018-10-01T07:13:53.824Z,31.10
2018-10-01T07:15:25.397Z,29.10
2018-10-01T07:16:57.038Z,30.50
2018-10-01T07:18:28.543Z,29.50
2018-10-01T07:20:00.418Z,28.20
2018-10-01T07:21:31.692Z,30.40
2018-10-01T07:23:03.340Z,28.70
2018-10-01T07:24:34.839Z,29.40
2018-10-01T07:26:06.512Z,30.30
2018-10-01T07:27:37.986Z,30.20
2018-10-01T07:29:09.559Z,31.60
2018-10-01T07:30:41.132Z,30.40
2018-10-01T07:32:12.807Z,29.00
2018-10-01T07:33:44.281Z,34.20
2018-10-01T07:35:15.854Z,31.20
2018-10-01T07:36:47.427Z,32.20
2018-10-01T07:38:19.001Z,31.60
2018-10-01T07:39:50.576Z,32.00
2018-10-01T07:41:22.149Z,30.00
2018-10-01T07:44:25.396Z,29.70
2018-10-01T07:45:56.882Z,31.50
2018-10-01T07:47:28.445Z,28.90
2018-10-01T07:49:00.024Z,27.30
2018-10-01T07:50:31.917Z,27.70
2018-10-01T07:52:03.165Z,28.90
2018-10-01T07:53:34.758Z,29.30
2018-10-01T07:55:06.313Z,29.20
2018-10-01T07:56:37.887Z,29.20
2018-10-01T07:58:09.460Z,28.90
2018-10-01T07:59:41.266Z,27.20
2018-10-01T08:01:12.609Z,26.40
2018-10-01T08:02:44.282Z,25.40
2018-10-01T08:04:15.757Z,24.80
2018-10-01T08:05:47.331Z,25.20
2018-10-01T08:07:18.905Z,23.80
2018-10-01T08:08:50.479Z,24.10
2018-10-01T08:10:22.052Z,22.60
2018-10-01T08:11:53.627Z,23.20
2018-10-01T08:13:25.199Z,26.30
2018-10-01T08:16:28.347Z,24.60
2018-10-01T08:17:59.921Z,23.40
2018-10-01T08:19:31.496Z,24.40
2018-10-01T08:21:03.073Z,26.20
2018-10-01T08:22:35.044Z,25.10
2018-10-01T08:24:06.217Z,24.80
2018-10-01T08:25:37.792Z,26.90
2018-10-01T08:27:09.366Z,24.80
2018-10-01T08:28:40.939Z,24.20
2018-10-01T08:30:12.512Z,23.20
2018-10-01T08:31:44.086Z,22.90
2018-10-01T08:33:15.659Z,21.70
2018-10-01T08:34:47.334Z,23.90
2018-10-01T08:36:18.806Z,24.50
2018-10-01T08:37:50.423Z,23.20
2018-10-01T08:39:21.954Z,23.40
2018-10-01T08:40:53.629Z,22.50
2018-10-01T08:42:25.101Z,22.80
2018-10-01T08:43:56.730Z,22.50
2018-10-01T08:45:28.249Z,20.00
2018-10-01T08:46:59.856Z,22.00
2018-10-01T08:48:31.399Z,22.60
2018-10-01T08:50:03.019Z,21.60
2018-10-01T08:51:34.561Z,21.40
2018-10-01T08:53:06.633Z,21.70
2018-10-01T08:54:37.715Z,21.40
2018-10-01T08:56:09.334Z,21.70
2018-10-01T08:57:40.842Z,23.00
2018-10-01T08:59:12.574Z,22.90
2018-10-01T09:00:43.992Z,21.90
2018-10-01T09:02:15.576Z,23.20
2018-10-01T09:03:47.443Z,23.30
2018-10-01T09:05:18.937Z,22.00
2018-10-01T09:06:50.366Z,22.70
2018-10-01T09:08:22.781Z,23.30
2018-10-01T09:09:53.738Z,23.10
2018-10-01T09:12:56.581Z,23.20
2018-10-01T09:14:28.180Z,23.30
2018-10-01T09:16:00.033Z,23.60
2018-10-01T09:17:31.368Z,25.60
2018-10-01T09:19:02.978Z,25.30
2018-10-01T09:20:34.497Z,24.90
2018-10-01T09:22:06.026Z,25.30
2018-10-01T09:23:38.176Z,25.40
2018-10-01T09:25:09.177Z,24.50
2018-10-01T09:28:12.325Z,23.00
2018-10-01T09:32:47.247Z,23.80
2018-10-01T09:34:18.822Z,23.40
2018-10-01T09:35:50.193Z,23.00
2018-10-01T09:37:21.772Z,24.10
2018-10-01T09:38:53.444Z,24.30
2018-10-01T09:41:56.531Z,22.60
2018-10-01T09:43:28.070Z,22.40
2018-10-01T09:44:59.644Z,24.40
2018-10-01T09:46:31.242Z,23.90
2018-10-01T09:48:03.041Z,23.30
2018-10-01T09:49:34.369Z,23.00
2018-10-01T09:51:05.944Z,22.00
2018-10-01T09:57:12.350Z,19.00
2018-10-01T09:58:43.841Z,20.50
2018-10-01T10:03:20.180Z,17.60
2018-10-01T10:04:51.085Z,19.00
2018-10-01T10:06:21.700Z,18.90
2018-10-01T10:07:53.477Z,18.10
2018-10-01T10:10:56.630Z,17.40
2018-10-01T10:12:28.003Z,17.20
2018-10-01T10:13:59.634Z,17.80
2018-10-01T10:15:31.677Z,17.40
2018-10-01T10:17:03.366Z,17.20
2018-10-01T10:21:37.461Z,17.10
2018-10-01T10:23:09.038Z,16.90
2018-10-01T10:24:40.618Z,17.00
2018-10-01T10:27:44.897Z,17.70
2018-10-01T10:29:15.548Z,16.90
2018-10-01T10:30:47.028Z,18.20
2018-10-01T10:32:18.852Z,16.60
2018-10-01T10:33:50.337Z,18.10
2018-10-01T10:35:22.444Z,17.00
2018-10-01T10:36:53.276Z,18.10
2018-10-01T10:38:24.934Z,19.30
2018-10-01T10:39:56.391Z,19.80
2018-10-01T10:41:27.956Z,21.90
2018-10-01T10:42:59.542Z,23.40
2018-10-01T10:44:31.152Z,21.30
2018-10-01T10:46:02.682Z,24.20
2018-10-01T10:47:34.257Z,23.10
2018-10-01T10:49:05.832Z,23.60
2018-10-01T10:50:37.696Z,23.90
2018-10-01T10:52:09.589Z,24.60
2018-10-01T10:53:40.660Z,24.20
2018-10-01T10:55:12.136Z,23.80
2018-10-01T10:58:16.206Z,23.80
2018-10-01T10:59:47.061Z,25.00
2018-10-01T11:04:22.997Z,23.50
2018-10-01T11:05:53.559Z,24.30
2018-10-01T11:07:24.733Z,23.70
2018-10-01T11:08:56.339Z,24.30
2018-10-01T11:10:28.135Z,23.00
2018-10-01T11:11:59.629Z,23.70
2018-10-01T11:13:31.233Z,23.90
2018-10-01T11:15:03.195Z,22.80
2018-10-01T11:16:34.302Z,24.50
2018-10-01T11:18:06.903Z,21.40
2018-10-01T11:19:37.868Z,21.60
2018-10-01T11:21:09.647Z,22.00
2018-10-01T11:22:40.513Z,22.00
2018-10-01T11:24:12.113Z,22.60
2018-10-01T11:25:43.656Z,22.70
2018-10-01T11:27:15.611Z,23.30
2018-10-01T11:28:47.580Z,22.70
2018-10-01T11:31:50.258Z,24.00
2018-10-01T11:33:22.400Z,24.20
2018-10-01T11:34:56.060Z,22.20
2018-10-01T11:36:24.778Z,23.00
2018-10-01T11:37:57.818Z,21.30
2018-10-01T11:39:28.059Z,22.40
2018-10-01T11:40:59.685Z,23.20
2018-10-01T11:42:31.362Z,21.80
2018-10-01T11:44:02.661Z,22.10
2018-10-01T11:45:35.109Z,22.70
2018-10-01T11:47:06.280Z,24.30
2018-10-01T11:48:37.760Z,23.20
2018-10-01T11:50:09.770Z,22.70
2018-10-01T11:51:41.286Z,22.40
2018-10-01T11:53:12.485Z,22.00
2018-10-01T11:54:44.361Z,21.60
2018-10-01T11:56:15.582Z,21.30
2018-10-01T11:57:47.771Z,21.60
2018-10-01T11:59:18.555Z,21.00
2018-10-01T12:00:50.680Z,21.90
2018-10-01T12:02:21.879Z,20.50
2018-10-01T12:03:53.664Z,20.50
2018-10-01T12:05:25.836Z,19.90
2018-10-01T12:08:29.840Z,19.80
2018-10-01T12:10:00.048Z,20.30
2018-10-01T12:11:31.306Z,19.90
2018-10-01T12:13:02.841Z,19.20
2018-10-01T12:14:34.680Z,20.60
2018-10-01T12:16:06.362Z,20.60
2018-10-01T12:17:38.843Z,18.60
2018-10-01T12:19:09.653Z,19.20
2018-10-01T12:20:40.796Z,18.20
2018-10-01T12:22:12.677Z,16.80
2018-10-01T12:23:44.017Z,17.10
2018-10-01T12:25:15.593Z,17.90
2018-10-01T12:26:47.688Z,17.60
2018-10-01T12:28:18.853Z,17.10
2018-10-01T12:29:50.291Z,17.20
2018-10-01T12:31:22.045Z,16.30
2018-10-01T12:32:53.571Z,17.70
2018-10-01T12:34:25.377Z,17.00
2018-10-01T12:35:57.322Z,16.10
2018-10-01T12:37:28.131Z,16.90
2018-10-01T12:40:31.812Z,15.70
2018-10-01T12:42:03.640Z,16.40
2018-10-01T12:43:34.529Z,17.00
2018-10-01T12:46:38.617Z,15.70
2018-10-01T12:48:10.631Z,16.40
2018-10-01T12:49:41.777Z,16.70
2018-10-01T12:51:13.045Z,16.30
2018-10-01T12:52:44.093Z,16.30
2018-10-01T12:58:50.073Z,16.90
2018-10-01T13:00:21.451Z,17.00
2018-10-01T13:01:53.231Z,15.40
2018-10-01T13:04:56.347Z,15.40
2018-10-01T13:06:28.411Z,17.70
2018-10-01T13:07:59.729Z,17.90
2018-10-01T13:11:02.582Z,15.80
2018-10-01T13:14:05.679Z,16.60
2018-10-01T13:17:09.154Z,16.10
2018-10-01T13:18:41.176Z,16.40
2018-10-01T13:20:12.483Z,16.40
2018-10-01T13:21:43.555Z,15.40
2018-10-01T13:23:15.237Z,13.70
2018-10-01T13:26:18.499Z,14.60
2018-10-01T13:27:49.875Z,15.50
2018-10-01T13:29:21.976Z,15.00
2018-10-01T13:30:53.239Z,14.40
2018-10-01T13:32:24.616Z,14.20
2018-10-01T13:33:56.334Z,14.80
2018-10-01T13:35:27.778Z,14.20
2018-10-01T13:36:59.358Z,14.10
2018-10-01T13:38:31.141Z,15.00
2018-10-01T13:40:02.526Z,13.20
2018-10-01T13:41:34.725Z,14.50
2018-10-01T13:43:05.694Z,14.50
2018-10-01T13:44:39.555Z,16.70
2018-10-01T13:46:08.897Z,15.20
2018-10-01T13:47:47.340Z,13.70
2018-10-01T13:50:43.639Z,15.20
2018-10-01T13:55:18.540Z,14.70
2018-10-01T13:56:49.939Z,14.90
2018-10-01T13:58:22.292Z,14.30
2018-10-01T13:59:53.691Z,14.90
2018-10-01T14:01:25.532Z,14.10
2018-10-01T14:02:56.763Z,13.40
2018-10-01T14:06:00.007Z,13.70
2018-10-01T14:09:03.398Z,14.40
2018-10-01T14:10:35.160Z,14.30
2018-10-01T14:12:06.155Z,14.30
2018-10-01T14:13:38.205Z,14.70
2018-10-01T14:15:09.433Z,15.40
2018-10-01T14:16:40.889Z,14.60
2018-10-01T14:18:12.843Z,15.20
2018-10-01T14:19:44.617Z,13.50
2018-10-01T14:21:16.675Z,13.80
2018-10-01T14:22:47.479Z,13.50
2018-10-01T14:24:19.198Z,13.30
2018-10-01T14:27:22.500Z,12.80
2018-10-01T14:28:53.546Z,12.60
2018-10-01T14:30:25.831Z,13.20
2018-10-01T14:31:57.108Z,13.20
2018-10-01T14:33:28.389Z,13.40
2018-10-01T14:34:59.476Z,12.10
2018-10-01T14:38:02.642Z,11.60
2018-10-01T14:39:34.526Z,12.00
2018-10-01T14:41:05.809Z,11.10
2018-10-01T14:45:40.564Z,11.80
2018-10-01T14:47:12.489Z,12.70
2018-10-01T14:48:43.825Z,11.70
2018-10-01T14:50:15.549Z,12.00
2018-10-01T14:51:47.022Z,12.60
2018-10-01T14:55:15.817Z,11.20
2018-10-01T14:57:54.232Z,13.30
2018-10-01T14:59:25.125Z,12.10
2018-10-01T15:00:56.967Z,11.00
2018-10-01T15:02:27.957Z,11.60
2018-10-01T15:05:31.120Z,12.20
2018-10-01T15:07:02.710Z,11.20
2018-10-01T15:08:35.334Z,10.40
2018-10-01T15:11:37.659Z,10.40
2018-10-01T15:13:12.558Z,10.00
2018-10-01T15:14:40.726Z,10.20
2018-10-01T15:16:12.257Z,9.10
2018-10-01T15:17:44.078Z,9.90
2018-10-01T15:19:17.734Z,10.60
2018-10-01T15:20:47.152Z,10.50
2018-10-01T15:22:19.043Z,10.40
2018-10-01T15:23:51.138Z,9.80
2018-10-01T15:25:22.051Z,10.60
2018-10-01T15:26:54.388Z,10.80
2018-10-01T15:31:28.693Z,10.00
2018-10-01T15:33:00.457Z,9.90
2018-10-01T15:34:31.678Z,9.60
2018-10-01T15:36:02.802Z,8.90
2018-10-01T15:37:34.771Z,9.60
2018-10-01T15:39:06.019Z,10.80
2018-10-01T15:40:37.702Z,9.30
2018-10-01T15:42:09.271Z,9.20
2018-10-01T15:43:41.249Z,9.80
2018-10-01T15:45:12.244Z,9.90
2018-10-01T15:46:43.842Z,10.00
2018-10-01T15:48:16.130Z,9.20
2018-10-01T15:49:47.314Z,9.10
2018-10-01T15:51:18.997Z,8.30
2018-10-01T15:52:50.148Z,9.20
2018-10-01T15:54:21.732Z,9.40
2018-10-01T15:55:53.959Z,9.40
2018-10-01T15:58:56.547Z,9.30
2018-10-01T16:01:59.641Z,9.80
2018-10-01T16:03:31.231Z,9.20
2018-10-01T16:06:34.377Z,9.40
2018-10-01T16:09:37.538Z,9.00
2018-10-01T16:11:09.163Z,9.60
2018-10-01T16:14:12.298Z,9.00
2018-10-01T16:17:15.859Z,9.20
2018-10-01T16:18:47.076Z,8.70
2018-10-01T16:20:19.128Z,8.30
2018-10-01T16:21:50.395Z,7.70
2018-10-01T16:23:22.278Z,8.40
2018-10-01T16:24:53.571Z,8.60
2018-10-01T16:26:24.936Z,9.30
2018-10-01T16:27:56.513Z,8.70
2018-10-01T16:29:29.095Z,8.60
2018-10-01T16:30:59.682Z,8.10
2018-10-01T16:32:31.461Z,8.20
2018-10-01T16:34:02.838Z,9.70
2018-10-01T16:35:34.857Z,10.00
2018-10-01T16:37:06.047Z,9.30
2018-10-01T16:38:37.582Z,10.20
2018-10-01T16:40:09.511Z,9.30
2018-10-01T16:41:41.250Z,9.30
2018-10-01T16:43:12.324Z,9.80
2018-10-01T16:44:43.912Z,9.80
2018-10-01T16:47:47.303Z,9.60
2018-10-01T16:50:50.379Z,9.30
2018-10-01T16:52:22.055Z,10.80
2018-10-01T16:55:25.073Z,10.00
2018-10-01T16:56:56.755Z,10.10
2018-10-01T16:58:28.133Z,10.50
2018-10-01T17:00:00.439Z,10.90
2018-10-01T17:01:31.596Z,11.00
2018-10-01T17:03:02.940Z,10.50
2018-10-01T17:04:34.702Z,11.00
2018-10-01T17:06:06.035Z,11.30
2018-10-01T17:07:37.615Z,11.30
2018-10-01T17:09:09.499Z,11.00
2018-10-01T17:10:40.774Z,10.70
2018-10-01T17:12:12.355Z,11.40
2018-10-01T17:13:45.173Z,11.20
2018-10-01T17:15:15.523Z,10.50
2018-10-01T17:16:47.095Z,10.40
2018-10-01T17:18:18.982Z,11.20
2018-10-01T17:19:50.255Z,11.60
2018-10-01T17:22:53.413Z,11.00
2018-10-01T17:24:25.513Z,10.40
2018-10-01T17:27:28.154Z,10.40
2018-10-01T17:29:00.041Z,10.10
2018-10-01T17:30:31.312Z,10.60
2018-10-01T17:32:03.093Z,10.50
2018-10-01T17:33:35.095Z,9.90
2018-10-01T17:36:37.632Z,9.40
2018-10-01T17:39:40.946Z,8.50
2018-10-01T17:41:12.373Z,8.40
2018-10-01T17:42:44.523Z,9.20
2018-10-01T17:44:16.525Z,8.70
2018-10-01T17:45:48.514Z,8.00
2018-10-01T17:47:19.266Z,8.30
2018-10-01T17:48:50.785Z,8.30
2018-10-01T17:50:22.895Z,8.60
2018-10-01T17:51:54.633Z,8.00
2018-10-01T17:53:25.806Z,8.40
2018-10-01T17:54:57.024Z,8.50
2018-10-01T17:56:28.754Z,7.80
2018-10-01T17:58:00.790Z,7.60
2018-10-01T17:59:31.634Z,7.80
2018-10-01T18:01:03.359Z,7.70
2018-10-01T18:02:35.064Z,8.10
2018-10-01T18:04:06.657Z,8.10
2018-10-01T18:05:38.471Z,8.00
2018-10-01T18:07:09.674Z,8.30
2018-10-01T18:08:41.819Z,8.20
2018-10-01T18:11:44.797Z,8.90
2018-10-01T18:13:15.776Z,8.20
2018-10-01T18:14:48.281Z,8.70
2018-10-01T18:16:18.932Z,9.20
2018-10-01T18:17:50.567Z,8.50
2018-10-01T18:19:21.919Z,8.10
2018-10-01T18:22:25.555Z,7.90
2018-10-01T18:23:56.936Z,7.90
2018-10-01T18:25:28.208Z,7.70
2018-10-01T18:26:59.843Z,7.90
2018-10-01T18:28:32.064Z,7.70
2018-10-01T18:30:03.235Z,7.60
2018-10-01T18:31:34.554Z,8.10
2018-10-01T18:33:06.175Z,8.20
2018-10-01T18:34:38.088Z,8.30
2018-10-01T18:37:41.161Z,10.30
2018-10-01T18:39:12.637Z,10.30
2018-10-01T18:40:44.580Z,10.40
2018-10-01T18:42:16.625Z,10.40
2018-10-01T18:43:48.154Z,8.10
2018-10-01T18:45:19.220Z,8.00
2018-10-01T18:46:51.264Z,7.50
2018-10-01T18:48:23.238Z,8.20
2018-10-01T18:50:23.220Z,8.30
2018-10-01T18:51:53.851Z,9.20
2018-10-01T18:53:25.561Z,8.70
2018-10-01T18:54:56.901Z,9.60
2018-10-01T18:56:28.484Z,9.30
2018-10-01T18:58:00.253Z,9.60
2018-10-01T18:59:31.638Z,10.60
2018-10-01T19:01:03.925Z,10.70
2018-10-01T19:02:35.144Z,13.50
2018-10-01T19:04:06.888Z,11.60
2018-10-01T19:05:37.928Z,12.20
2018-10-01T19:07:09.812Z,13.10
2018-10-01T19:08:41.115Z,14.00
2018-10-01T19:10:12.807Z,12.10
2018-10-01T19:11:44.398Z,13.70
2018-10-01T19:13:16.007Z,15.10
2018-10-01T19:14:47.634Z,14.50
2018-10-01T19:16:19.095Z,15.10
2018-10-01T19:17:51.142Z,14.00
2018-10-01T19:19:22.124Z,15.90
2018-10-01T19:22:25.374Z,16.40
2018-10-01T19:23:56.995Z,17.20
2018-10-01T19:27:00.125Z,9.40
2018-10-01T19:28:31.907Z,10.40
2018-10-01T19:30:03.859Z,9.30
2018-10-01T19:31:34.797Z,9.00
2018-10-01T19:33:06.307Z,9.10
2018-10-01T19:36:09.655Z,8.80
2018-10-01T19:37:41.224Z,8.70
2018-10-01T19:40:44.484Z,8.30
2018-10-01T19:43:47.640Z,9.70
2018-10-01T19:45:18.967Z,10.60
2018-10-01T19:49:53.859Z,9.70
2018-10-01T19:51:25.625Z,9.70
2018-10-01T19:54:28.963Z,10.40
2018-10-01T19:56:00.002Z,9.80
2018-10-01T19:57:31.550Z,9.40
2018-10-01T19:59:03.221Z,9.80
2018-10-01T20:00:34.753Z,8.40
2018-10-01T20:02:06.857Z,8.00
2018-10-01T20:03:38.021Z,7.20
2018-10-01T20:05:09.494Z,8.20
2018-10-01T20:06:41.319Z,8.90
2018-10-01T20:08:13.724Z,8.60
2018-10-01T20:09:44.376Z,8.50
2018-10-01T20:12:47.326Z,8.80
2018-10-01T20:14:18.904Z,10.20
2018-10-01T20:17:24.285Z,10.20
2018-10-01T20:18:53.639Z,9.80
2018-10-01T20:20:25.450Z,9.60
2018-10-01T20:23:28.515Z,9.40
2018-10-01T20:26:32.268Z,9.30
2018-10-01T20:28:03.226Z,8.40
2018-10-01T20:29:34.883Z,9.80
2018-10-01T20:31:06.634Z,8.80
2018-10-01T20:32:37.837Z,10.00
2018-10-01T20:34:09.415Z,10.60
2018-10-01T20:38:44.248Z,10.20
2018-10-01T20:41:47.357Z,9.70
2018-10-01T20:43:18.878Z,9.70
2018-10-01T20:44:50.593Z,9.80
2018-10-01T20:46:22.561Z,9.20
2018-10-01T20:47:53.977Z,9.40
2018-10-01T20:49:25.911Z,9.70
2018-10-01T20:50:56.762Z,9.50
2018-10-01T20:52:28.382Z,10.00
2018-10-01T20:54:00.220Z,11.70
2018-10-01T20:55:31.494Z,10.80
2018-10-01T20:57:03.222Z,11.30
2018-10-01T20:58:34.647Z,11.40
2018-10-01T21:00:06.526Z,9.80
2018-10-01T21:01:37.799Z,11.40
2018-10-01T21:03:09.375Z,10.60
2018-10-01T21:04:40.953Z,11.10
2018-10-01T21:07:44.310Z,12.00
2018-10-01T21:09:15.678Z,11.60
2018-10-01T21:10:47.254Z,11.30
2018-10-01T21:12:18.831Z,10.80
2018-10-01T21:13:51.128Z,11.60
2018-10-01T21:15:22.080Z,12.50
2018-10-01T21:16:53.559Z,12.50
2018-10-01T21:18:25.131Z,13.30
2018-10-01T21:19:57.010Z,12.90
2018-10-01T21:21:28.285Z,12.30
2018-10-01T21:22:59.856Z,15.80
2018-10-01T21:24:31.431Z,14.80
2018-10-01T21:26:03.005Z,15.90
2018-10-01T21:27:34.580Z,16.30
2018-10-01T21:29:06.155Z,16.10
2018-10-01T21:30:38.251Z,16.10
2018-10-01T21:32:09.305Z,16.80
2018-10-01T21:35:12.556Z,19.20
2018-10-01T21:36:44.030Z,16.50
2018-10-01T21:38:15.806Z,17.80
2018-10-01T21:39:47.179Z,18.50
2018-10-01T21:41:19.881Z,20.10
2018-10-01T21:42:50.330Z,20.20
2018-10-01T21:44:21.902Z,19.80
2018-10-01T21:45:53.477Z,18.00
2018-10-01T21:47:25.053Z,20.40
2018-10-01T21:48:56.626Z,17.60
2018-10-01T21:50:28.200Z,20.80
2018-10-01T21:51:59.978Z,20.10